Time;durP1;ratioP1;P1;durP2;ratioP2;P2;SDS_P1;SDS_P2;PMS_P1;PMS_P2;Temp;Humidity;BMP_temperature;BMP_pressure;BME280_temperature;BME280_humidity;BME280_pressure;Samples;Min_cycle;Max_cycle;Signal;HPM_P1;HPM_P2
2021/11/08 00:02:08;;;;;;;5.87;2.33;;;;;;;9.70;88.08;96572.47;5078664;28;20203;-68
2021/11/08 00:04:35;;;;;;;3.50;2.23;;;;;;;9.37;88.75;96578.69;5078609;28;20216;-68
2021/11/08 00:07:02;;;;;;;5.93;1.83;;;;;;;9.36;88.80;96584.09;5077664;28;20210;-68
2021/11/08 00:09:29;;;;;;;2.67;1.90;;;;;;;9.35;88.52;96569.28;5078448;28;20672;-68
2021/11/08 00:11:56;;;;;;;2.30;1.77;;;;;;;9.30;88.75;96575.03;5078448;28;20220;-68
2021/11/08 00:14:23;;;;;;;2.10;1.43;;;;;;;9.26;89.21;96583.41;5074870;28;20624;-68
2021/11/08 00:16:59;;;;;;;3.10;2.07;;;;;;;9.31;89.07;96579.31;5076107;28;20273;-68
2021/11/08 00:19:46;;;;;;;2.53;1.93;;;;;;;9.31;89.90;96583.75;5078236;28;20269;-68
2021/11/08 00:22:13;;;;;;;2.47;1.77;;;;;;;9.21;89.34;96583.06;5078992;28;20239;-68
2021/11/08 00:24:41;;;;;;;1.90;1.70;;;;;;;9.07;89.96;96585.50;5078178;28;20204;-68
2021/11/08 00:27:08;;;;;;;1.83;1.67;;;;;;;9.09;89.63;96584.34;5076736;28;21063;-68
2021/11/08 00:29:37;;;;;;;3.40;2.03;;;;;;;9.18;89.12;96581.56;5078114;28;20238;-68
2021/11/08 00:32:05;;;;;;;4.53;2.03;;;;;;;9.11;90.01;96596.38;5079052;28;21239;-68
2021/11/08 00:34:33;;;;;;;10.20;2.67;;;;;;;9.36;89.65;96589.34;5078151;28;20595;-68
2021/11/08 00:37:00;;;;;;;4.87;2.00;;;;;;;9.16;89.47;96593.25;5077034;28;20212;-68
2021/11/08 00:39:26;;;;;;;4.30;2.47;;;;;;;9.25;89.19;96589.66;5078082;28;20674;-68
2021/11/08 00:41:53;;;;;;;4.50;2.60;;;;;;;9.31;88.80;96589.81;5077596;28;20207;-68
2021/11/08 00:44:20;;;;;;;3.83;1.80;;;;;;;9.29;88.50;96596.22;5077814;28;20211;-68
2021/11/08 00:46:48;;;;;;;3.53;2.10;;;;;;;9.18;89.21;96596.53;5076660;28;20199;-68
2021/11/08 00:49:15;;;;;;;6.57;1.67;;;;;;;9.20;88.77;96589.31;5077839;28;20525;-68
2021/11/08 00:51:45;;;;;;;4.60;1.53;;;;;;;9.44;88.63;96594.63;5077756;28;20231;-68
2021/11/08 00:54:13;;;;;;;3.07;1.73;;;;;;;9.34;88.36;96575.53;5077348;28;20652;-68
2021/11/08 00:56:41;;;;;;;3.70;1.73;;;;;;;9.36;88.80;96584.91;5077074;28;20668;-69
2021/11/08 00:59:08;;;;;;;7.63;2.20;;;;;;;9.25;88.71;96585.22;5077031;28;20220;-68
2021/11/08 01:01:35;;;;;;;3.70;1.77;;;;;;;9.25;88.56;96597.53;5077180;28;20204;-68
2021/11/08 01:04:02;;;;;;;2.40;1.43;;;;;;;9.30;88.88;96587.38;5077478;28;20768;-68
2021/11/08 01:06:29;;;;;;;4.00;2.03;;;;;;;9.09;89.43;96590.44;5076299;28;20211;-68
2021/11/08 01:08:57;;;;;;;4.27;2.17;;;;;;;9.27;89.29;96590.31;5076792;28;20774;-68
2021/11/08 01:11:23;;;;;;;9.63;1.60;;;;;;;9.09;89.35;96593.06;5077201;28;20227;-68
2021/11/08 01:13:50;;;;;;;3.63;1.33;;;;;;;9.10;89.57;96593.91;5077788;28;20211;-68
2021/11/08 01:16:17;;;;;;;10.27;1.37;;;;;;;9.01;89.71;96592.19;5076230;28;20204;-68
2021/11/08 01:18:44;;;;;;;4.70;2.13;;;;;;;9.10;89.15;96599.16;5076568;28;20281;-68
2021/11/08 01:21:11;;;;;;;2.37;1.57;;;;;;;8.92;89.29;96602.84;5076904;28;20195;-68
2021/11/08 01:23:37;;;;;;;5.07;1.90;;;;;;;9.09;88.87;96608.03;5077156;28;20206;-68
2021/11/08 01:26:08;;;;;;;5.17;1.93;;;;;;;9.23;88.70;96595.06;5076422;28;20208;-68
2021/11/08 01:28:35;;;;;;;2.07;1.30;;;;;;;9.05;89.18;96605.84;5077290;28;20220;-68
2021/11/08 01:31:03;;;;;;;3.17;1.50;;;;;;;9.05;88.64;96611.94;5075746;28;20219;-68
2021/11/08 01:33:30;;;;;;;4.10;1.67;;;;;;;8.83;88.67;96617.75;5076572;28;20231;-68
2021/11/08 01:36:11;;;;;;;1.57;1.43;;;;;;;8.60;89.52;96632.44;5076824;28;20204;-68
2021/11/08 01:38:42;;;;;;;6.43;1.60;;;;;;;8.91;88.38;96630.94;5076715;28;20238;-68
2021/11/08 01:41:11;;;;;;;3.67;1.63;;;;;;;8.92;87.52;96624.69;5076169;28;20599;-68
2021/11/08 01:43:38;;;;;;;2.43;1.57;;;;;;;8.65;88.00;96622.25;5077392;28;21064;-68
2021/11/08 01:46:05;;;;;;;1.60;1.50;;;;;;;8.48;87.87;96617.88;5076378;28;20215;-68
2021/11/08 01:48:32;;;;;;;3.27;1.63;;;;;;;8.19;88.34;96613.91;5076527;28;20295;-68
2021/11/08 01:50:59;;;;;;;2.33;1.80;;;;;;;8.11;88.25;96619.09;5076485;28;20223;-68
2021/11/08 01:53:26;;;;;;;2.03;1.33;;;;;;;8.13;86.83;96611.06;5076983;28;20204;-68
2021/11/08 01:55:54;;;;;;;4.20;1.57;;;;;;;8.21;86.77;96619.00;5075390;28;20210;-68
2021/11/08 01:58:23;;;;;;;1.03;1.00;;;;;;;8.20;87.08;96628.69;5076273;28;20223;-68
2021/11/08 02:00:51;;;;;;;4.37;1.87;;;;;;;8.04;86.63;96633.81;5076792;28;20207;-68
2021/11/08 02:03:18;;;;;;;6.47;1.57;;;;;;;7.87;86.03;96639.88;5076460;28;20207;-68
2021/11/08 02:05:45;;;;;;;8.53;2.00;;;;;;;7.60;87.78;96639.13;5076053;28;20207;-68
2021/11/08 02:08:11;;;;;;;2.97;2.03;;;;;;;7.51;87.88;96633.94;5076491;28;20231;-68
2021/11/08 02:10:38;;;;;;;1.93;1.07;;;;;;;7.49;86.34;96628.84;5076233;28;20220;-68
2021/11/08 02:13:05;;;;;;;1.70;1.40;;;;;;;7.34;86.93;96632.13;5076359;28;20378;-68
2021/11/08 02:15:35;;;;;;;2.10;1.47;;;;;;;7.28;88.77;96633.56;5076603;28;20199;-68
2021/11/08 02:18:02;;;;;;;2.10;1.17;;;;;;;7.02;89.91;96646.66;5076535;28;20216;-68
2021/11/08 02:20:32;;;;;;;1.97;1.33;;;;;;;7.09;90.69;96643.34;5075768;28;20246;-68
2021/11/08 02:23:01;;;;;;;1.73;1.20;;;;;;;7.06;91.15;96640.97;5075919;28;20199;-68
2021/11/08 02:25:29;;;;;;;1.27;1.17;;;;;;;6.76;87.78;96645.69;5076140;28;20211;-68
2021/11/08 02:27:56;;;;;;;1.00;0.90;;;;;;;6.90;87.41;96647.84;5075726;28;20661;-68
2021/11/08 02:30:27;;;;;;;1.30;1.20;;;;;;;6.95;88.27;96654.28;5078751;28;20794;-68
2021/11/08 02:32:54;;;;;;;4.70;1.70;;;;;;;6.82;88.84;96645.09;5080412;28;20203;-68
2021/11/08 02:35:22;;;;;;;5.23;2.13;;;;;;;6.82;88.61;96645.09;5080393;28;20212;-68
2021/11/08 02:37:51;;;;;;;1.53;1.23;;;;;;;6.74;89.65;96650.25;5079817;28;20223;-68
2021/11/08 02:40:21;;;;;;;1.83;1.53;;;;;;;6.77;88.75;96652.56;5080398;28;20214;-68
2021/11/08 02:42:50;;;;;;;0.60;0.60;;;;;;;6.67;89.83;96654.41;5080578;28;20200;-68
2021/11/08 02:45:17;;;;;;;2.63;1.73;;;;;;;6.54;88.52;96642.59;5079746;28;20290;-68
2021/11/08 02:47:45;;;;;;;1.63;1.43;;;;;;;6.49;88.00;96640.41;5079276;28;20224;-68
2021/11/08 02:50:14;;;;;;;2.00;1.40;;;;;;;6.31;89.31;96642.13;5079768;28;20227;-68
2021/11/08 02:52:41;;;;;;;1.93;1.07;;;;;;;6.30;87.95;96656.16;5079284;28;20318;-68
2021/11/08 02:55:09;;;;;;;1.47;1.13;;;;;;;6.25;91.63;96644.44;5080109;28;20195;-68
2021/11/08 02:57:37;;;;;;;0.67;0.67;;;;;;;6.13;92.05;96640.34;5080425;28;20220;-68
2021/11/08 03:00:06;;;;;;;12.70;1.30;;;;;;;6.32;91.24;96635.91;5079050;28;20235;-68
2021/11/08 03:02:35;;;;;;;3.43;1.60;;;;;;;6.28;88.23;96636.34;5079263;28;20265;-68
2021/11/08 03:05:02;;;;;;;0.80;0.80;;;;;;;6.30;87.04;96634.38;5079738;28;20200;-68
2021/11/08 03:07:31;;;;;;;3.77;0.90;;;;;;;6.27;87.32;96637.31;5078464;28;20212;-68
2021/11/08 03:10:02;;;;;;;1.00;0.90;;;;;;;6.49;88.10;96647.44;5079081;28;20227;-67
2021/11/08 03:12:33;;;;;;;1.10;0.93;;;;;;;6.49;88.23;96643.03;5075827;28;20204;-68
2021/11/08 03:15:06;;;;;;;2.33;1.23;;;;;;;6.29;87.80;96645.84;5078763;28;20280;-68
2021/11/08 03:17:36;;;;;;;1.70;1.47;;;;;;;6.24;88.04;96651.47;5078497;28;20223;-68
2021/11/08 03:20:05;;;;;;;1.27;1.17;;;;;;;6.37;87.20;96654.63;5079574;28;20215;-68
2021/11/08 03:22:33;;;;;;;1.40;1.10;;;;;;;5.92;88.49;96657.16;5079654;28;20207;-68
2021/11/08 03:25:05;;;;;;;1.53;1.43;;;;;;;6.11;87.26;96653.56;5074843;28;20642;-67
2021/11/08 03:27:44;;;;;;;1.77;1.10;;;;;;;6.28;86.34;96652.84;5079106;28;20589;-68
2021/11/08 03:30:14;;;;;;;0.93;0.77;;;;;;;6.05;87.52;96663.78;5079469;28;20198;-68
2021/11/08 03:32:42;;;;;;;6.70;1.43;;;;;;;5.90;88.29;96661.72;5079051;28;20208;-68
2021/11/08 03:35:09;;;;;;;1.67;1.30;;;;;;;5.91;89.72;96660.78;5078626;28;20215;-68
2021/11/08 03:37:41;;;;;;;1.07;0.97;;;;;;;6.06;89.26;96655.78;5078264;28;20234;-68
2021/11/08 03:40:10;;;;;;;0.63;0.63;;;;;;;5.94;87.96;96655.25;5078874;28;20309;-67
2021/11/08 03:42:38;;;;;;;2.13;1.87;;;;;;;5.99;87.31;96659.09;5079431;28;20219;-68
2021/11/08 03:45:06;;;;;;;1.77;1.47;;;;;;;5.78;86.81;96654.97;5079278;28;20204;-68
2021/11/08 03:47:32;;;;;;;1.87;1.13;;;;;;;5.34;87.83;96665.91;5078174;28;20226;-68
2021/11/08 03:49:59;;;;;;;2.37;1.30;;;;;;;5.39;88.10;96658.50;5078740;28;20204;-68
2021/11/08 03:52:26;;;;;;;3.20;1.33;;;;;;;5.28;87.48;96656.00;5079343;28;20227;-68
2021/11/08 03:54:52;;;;;;;0.57;0.57;;;;;;;5.01;88.93;96661.00;5079016;28;20212;-68
2021/11/08 03:57:18;;;;;;;1.20;1.10;;;;;;;5.15;89.56;96659.84;5078098;28;20215;-68
2021/11/08 03:59:46;;;;;;;5.07;1.13;;;;;;;5.57;88.48;96656.88;5079059;28;20200;-68
2021/11/08 04:02:13;;;;;;;3.07;1.50;;;;;;;5.42;88.24;96666.06;5077883;28;20215;-68
2021/11/08 04:04:40;;;;;;;0.83;0.83;;;;;;;5.54;87.13;96667.59;5078038;28;20216;-68
2021/11/08 04:07:06;;;;;;;3.47;1.33;;;;;;;5.50;85.87;96674.06;5077928;28;20227;-68
2021/11/08 04:09:34;;;;;;;1.67;1.20;;;;;;;5.43;87.08;96674.75;5079285;28;20220;-68
2021/11/08 04:12:00;;;;;;;1.53;1.13;;;;;;;5.34;88.34;96675.56;5078014;28;20237;-68
2021/11/08 04:14:27;;;;;;;1.27;0.70;;;;;;;5.06;91.73;96679.72;5078436;28;20715;-68
2021/11/08 04:16:55;;;;;;;4.53;1.43;;;;;;;5.63;90.04;96677.25;5077884;28;20239;-68
2021/11/08 04:19:27;;;;;;;13.23;2.40;;;;;;;5.50;88.85;96677.50;5078369;28;20223;-69
2021/11/08 04:21:54;;;;;;;2.23;1.47;;;;;;;5.53;89.47;96673.78;5078471;28;20204;-68
2021/11/08 04:24:21;;;;;;;2.17;1.30;;;;;;;5.17;89.79;96687.47;5078320;28;20330;-68
2021/11/08 04:26:47;;;;;;;8.80;1.47;;;;;;;5.37;89.18;96686.53;5077481;28;20558;-68
2021/11/08 04:29:14;;;;;;;2.83;1.70;;;;;;;5.29;88.62;96693.41;5077845;28;20223;-68
2021/11/08 04:31:42;;;;;;;1.27;1.13;;;;;;;5.13;87.11;96696.53;5077585;28;20314;-68
2021/11/08 04:34:23;;;;;;;0.53;0.53;;;;;;;5.43;86.42;96691.22;5077592;28;20228;-68
2021/11/08 04:39:43;;;;;;;2.20;1.53;;;;;;;4.99;87.16;96693.44;5076890;28;20231;-68
2021/11/08 04:42:13;;;;;;;1.90;1.13;;;;;;;4.56;89.34;96686.84;5076369;28;21186;-68
2021/11/08 04:45:04;;;;;;;2.00;1.50;;;;;;;4.65;90.47;96696.50;5076326;28;20202;-68
2021/11/08 04:50:16;;;;;;;1.57;1.47;;;;;;;4.87;88.63;96691.91;5076616;28;20195;-68
2021/11/08 04:53:03;;;;;;;0.87;0.87;;;;;;;4.85;87.14;96694.66;5075125;28;20230;-68
2021/11/08 04:55:42;;;;;;;1.00;0.97;;;;;;;4.89;86.34;96693.41;5075995;28;20626;-68
2021/11/08 05:22:58;;;;;;;3.33;1.47;;;;;;;4.82;88.71;96708.94;5076966;28;20213;-67
2021/11/08 05:28:20;;;;;;;0.43;0.43;;;;;;;4.96;87.18;96710.22;5048255;28;20587;-68
2021/11/08 05:30:45;;;;;;;19.03;1.20;;;;;;;4.80;88.83;96710.81;5077642;28;20238;-68
2021/11/08 05:33:14;;;;;;;1.67;1.40;;;;;;;4.88;90.12;96715.25;5076958;28;21078;-67
2021/11/08 05:35:41;;;;;;;2.30;1.30;;;;;;;4.91;88.52;96714.16;5076622;28;20229;-67
2021/11/08 05:38:12;;;;;;;1.80;1.40;;;;;;;5.01;87.02;96718.47;5077358;28;20289;-68
2021/11/08 05:40:38;;;;;;;1.07;0.97;;;;;;;4.84;86.60;96718.28;5076659;28;20229;-67
2021/11/08 05:43:07;;;;;;;1.63;1.33;;;;;;;5.01;87.44;96715.03;5076800;28;20206;-67
2021/11/08 05:45:35;;;;;;;2.77;2.57;;;;;;;5.05;87.58;96716.44;5076083;28;20203;-67
2021/11/08 05:48:04;;;;;;;5.30;1.50;;;;;;;4.98;87.87;96723.16;5076506;28;21282;-68
2021/11/08 05:50:32;;;;;;;1.90;1.13;;;;;;;5.05;87.79;96725.09;5076986;28;20320;-67
2021/11/08 05:52:59;;;;;;;4.03;1.87;;;;;;;4.97;87.95;96724.91;5076874;28;20253;-67
2021/11/08 05:55:34;;;;;;;2.50;2.13;;;;;;;5.02;87.46;96725.34;5076415;28;20207;-67
2021/11/08 05:58:10;;;;;;;3.03;2.03;;;;;;;4.84;87.42;96732.16;5076182;28;20702;-67
2021/11/08 06:50:09;;;;;;;4.50;1.80;;;;;;;4.62;86.97;96798.50;5076350;28;20215;-68
2021/11/08 06:52:37;;;;;;;4.53;2.07;;;;;;;4.69;87.56;96802.28;5076188;28;20220;-68
2021/11/08 06:55:06;;;;;;;1.70;1.60;;;;;;;4.83;87.72;96800.97;5075755;28;20200;-68
2021/11/08 06:57:44;;;;;;;3.57;1.83;;;;;;;4.95;87.54;96791.28;5075211;28;20231;-68
2021/11/08 07:00:14;;;;;;;1.43;1.00;;;;;;;5.18;86.91;96798.84;5076543;28;20204;-69
2021/11/08 07:02:40;;;;;;;2.17;1.53;;;;;;;5.06;86.71;96810.31;5076524;28;20214;-68
2021/11/08 07:05:08;;;;;;;1.40;1.23;;;;;;;5.20;86.93;96809.97;5076161;28;20210;-68
2021/11/08 07:07:34;;;;;;;1.77;1.57;;;;;;;4.81;87.58;96817.72;5075287;28;20247;-68
2021/11/08 07:10:01;;;;;;;2.77;1.53;;;;;;;4.90;87.12;96822.19;5075972;28;20204;-68
2021/11/08 07:12:28;;;;;;;3.27;1.90;;;;;;;4.82;87.72;96825.47;5073413;28;20340;-68
2021/11/08 07:14:54;;;;;;;2.57;1.40;;;;;;;5.06;87.12;96826.00;5076235;28;20208;-68
2021/11/08 07:17:22;;;;;;;1.73;1.13;;;;;;;5.22;86.54;96822.91;5079265;28;20203;-68
2021/11/08 07:19:48;;;;;;;5.20;2.00;;;;;;;5.17;86.53;96822.50;5080187;28;20218;-68
2021/11/08 07:22:15;;;;;;;2.60;1.73;;;;;;;5.13;86.87;96829.75;5078835;28;20774;-69
2021/11/08 07:24:41;;;;;;;2.93;1.90;;;;;;;5.25;85.80;96820.88;5080637;28;20207;-69
2021/11/08 07:27:08;;;;;;;4.43;1.57;;;;;;;5.36;86.05;96818.19;5079020;28;20230;-69
2021/11/08 07:29:37;;;;;;;2.23;1.10;;;;;;;5.31;86.50;96817.75;5078962;28;21066;-69
2021/11/08 07:32:05;;;;;;;11.30;1.50;;;;;;;5.62;86.84;96816.75;5079169;28;20233;-69
2021/11/08 07:34:33;;;;;;;1.97;1.40;;;;;;;5.70;86.79;96817.75;5079318;28;20211;-69
2021/11/08 07:36:59;;;;;;;1.23;1.03;;;;;;;5.34;86.36;96812.25;5078084;28;20203;-69
2021/11/08 07:39:26;;;;;;;4.97;1.87;;;;;;;5.37;87.05;96801.50;5078759;28;20624;-69
2021/11/08 07:41:53;;;;;;;3.47;1.53;;;;;;;5.77;87.51;96799.75;5078498;28;20192;-69
2021/11/08 07:44:20;;;;;;;2.57;1.40;;;;;;;5.77;88.65;96802.38;5079018;28;20196;-69
2021/11/08 07:46:46;;;;;;;2.13;1.93;;;;;;;5.63;88.37;96802.72;5077275;28;20262;-69
2021/11/08 07:49:13;;;;;;;3.10;1.67;;;;;;;5.72;88.96;96807.97;5077913;28;21140;-69
2021/11/08 07:51:41;;;;;;;1.73;1.40;;;;;;;5.78;91.06;96804.00;5077149;28;20224;-70
2021/11/08 07:54:08;;;;;;;2.50;2.30;;;;;;;5.97;91.24;96811.91;5077625;28;20201;-69
2021/11/08 07:56:35;;;;;;;3.30;2.17;;;;;;;6.11;90.15;96807.13;5077590;28;20200;-69
2021/11/08 07:59:01;;;;;;;1.67;1.17;;;;;;;6.12;91.56;96809.59;5078647;28;20231;-69
2021/11/08 08:01:28;;;;;;;1.63;1.50;;;;;;;6.10;93.03;96811.50;5078183;28;20208;-69
2021/11/08 08:03:54;;;;;;;1.70;1.60;;;;;;;6.23;93.21;96809.44;5078669;28;20204;-69
2021/11/08 08:06:21;;;;;;;3.57;2.93;;;;;;;6.26;93.26;96805.72;5078067;28;20208;-69
2021/11/08 08:08:50;;;;;;;5.00;2.97;;;;;;;6.82;91.88;96795.25;5074862;28;21160;-69
2021/11/08 08:11:18;;;;;;;13.10;4.73;;;;;;;6.88;90.69;96791.22;5076893;28;20204;-69
2021/11/08 08:13:45;;;;;;;6.77;2.93;;;;;;;6.80;90.76;96794.53;5078148;28;20211;-69
2021/11/08 08:16:16;;;;;;;4.63;2.67;;;;;;;7.08;90.19;96790.22;5077187;28;20279;-70
2021/11/08 08:18:44;;;;;;;5.03;3.73;;;;;;;7.20;90.00;96792.50;5078296;28;20991;-69
2021/11/08 08:21:11;;;;;;;3.17;2.60;;;;;;;7.27;89.25;96789.16;5078201;28;20207;-69
2021/11/08 08:23:38;;;;;;;2.97;2.33;;;;;;;7.31;88.96;96794.97;5077873;28;20200;-69
2021/11/08 08:26:06;;;;;;;4.90;3.17;;;;;;;7.61;89.25;96782.41;5077643;28;20211;-69
2021/11/08 08:28:32;;;;;;;3.83;2.67;;;;;;;7.50;88.30;96795.69;5078647;28;20256;-69
2021/11/08 08:30:59;;;;;;;5.67;2.73;;;;;;;7.52;88.93;96795.53;5077682;28;20208;-69
2021/11/08 08:33:27;;;;;;;4.00;2.77;;;;;;;7.67;88.91;96792.28;5073964;28;20224;-69
2021/11/08 08:35:53;;;;;;;2.67;1.70;;;;;;;7.62;88.83;96789.28;5076196;28;20210;-69
2021/11/08 08:38:22;;;;;;;2.77;1.60;;;;;;;7.63;88.70;96796.19;5078091;28;20227;-69
2021/11/08 08:40:50;;;;;;;10.00;2.43;;;;;;;7.82;88.26;96797.91;5076987;28;20211;-69
2021/11/08 08:43:19;;;;;;;8.63;1.80;;;;;;;7.95;88.44;96792.13;5077038;28;20254;-69
2021/11/08 08:45:45;;;;;;;13.20;2.00;;;;;;;7.93;87.64;96798.53;5076787;28;20222;-69
2021/11/08 08:48:12;;;;;;;13.13;1.63;;;;;;;7.89;87.55;96797.97;5076638;28;20722;-69
2021/11/08 08:50:40;;;;;;;4.43;2.43;;;;;;;8.27;87.28;96795.13;5075930;28;20590;-69
2021/11/08 08:53:08;;;;;;;7.77;2.47;;;;;;;8.35;86.61;96795.22;5076487;28;20245;-69
2021/11/08 08:55:36;;;;;;;11.67;2.13;;;;;;;8.36;86.43;96793.41;5076807;28;20212;-69
2021/11/08 08:58:02;;;;;;;2.43;1.90;;;;;;;8.32;86.00;96802.56;5075251;28;20744;-69
2021/11/08 09:00:30;;;;;;;3.17;1.63;;;;;;;8.52;85.65;96795.19;5075428;28;20523;-69
2021/11/08 09:02:57;;;;;;;7.43;1.83;;;;;;;8.52;84.95;96792.56;5075345;28;20200;-69
2021/11/08 09:05:26;;;;;;;2.43;1.70;;;;;;;8.71;85.09;96792.41;5076812;28;20209;-69
2021/11/08 09:07:54;;;;;;;2.73;2.17;;;;;;;8.75;84.55;96791.13;5072204;28;20281;-69
2021/11/08 09:10:25;;;;;;;21.47;2.13;;;;;;;8.84;83.73;96792.00;5077099;28;20203;-70
2021/11/08 09:12:53;;;;;;;2.03;1.83;;;;;;;9.06;82.75;96787.06;5076001;28;20227;-69
2021/11/08 09:15:20;;;;;;;3.50;2.30;;;;;;;8.99;82.59;96786.03;5077187;28;20213;-69
2021/11/08 09:17:48;;;;;;;3.90;2.50;;;;;;;9.32;82.10;96783.47;5076878;28;20224;-69
2021/11/08 09:20:15;;;;;;;3.50;3.10;;;;;;;9.11;80.91;96785.66;5076437;28;20212;-69
2021/11/08 09:22:43;;;;;;;7.47;2.07;;;;;;;9.43;79.75;96783.19;5076622;28;20215;-69
2021/11/08 09:25:12;;;;;;;7.20;1.47;;;;;;;9.46;78.47;96784.69;5076016;28;20435;-70
2021/11/08 09:27:39;;;;;;;3.07;1.47;;;;;;;9.32;78.42;96774.75;5074821;28;20224;-69
2021/11/08 09:30:09;;;;;;;4.70;1.53;;;;;;;9.38;76.10;96787.25;5076761;28;20552;-70
2021/11/08 09:32:36;;;;;;;12.73;2.00;;;;;;;9.26;77.75;96788.53;5076555;28;20223;-70
2021/11/08 09:35:04;;;;;;;3.67;3.17;;;;;;;9.57;77.36;96781.78;5070787;28;20215;-69
2021/11/08 09:37:34;;;;;;;6.50;1.30;;;;;;;9.59;77.19;96785.09;5073475;28;20294;-70
2021/11/08 09:40:01;;;;;;;7.63;2.63;;;;;;;9.71;78.09;96793.34;5075279;28;20265;-70
2021/11/08 09:42:29;;;;;;;2.07;1.70;;;;;;;9.95;77.40;96787.34;5074891;28;20871;-70
2021/11/08 09:44:56;;;;;;;11.60;2.13;;;;;;;9.94;76.51;96797.06;5074965;28;20690;-70
2021/11/08 09:47:23;;;;;;;2.87;1.83;;;;;;;9.74;76.66;96789.59;5074402;28;20208;-70
2021/11/08 09:49:59;;;;;;;2.20;1.87;;;;;;;9.85;76.59;96802.44;5075566;28;20253;-70
2021/11/08 09:52:29;;;;;;;4.83;1.93;;;;;;;9.94;76.95;96802.34;5071471;28;20227;-70
2021/11/08 09:54:56;;;;;;;8.63;1.37;;;;;;;10.09;75.52;96803.38;5071605;28;20210;-70
2021/11/08 09:57:24;;;;;;;8.70;2.10;;;;;;;9.89;75.90;96796.72;5072740;28;20203;-70
2021/11/08 09:59:51;;;;;;;2.73;1.40;;;;;;;9.86;75.58;96804.94;5076054;28;20701;-69
2021/11/08 10:02:18;;;;;;;2.43;1.53;;;;;;;9.68;76.96;96799.94;5076862;28;20203;-69
2021/11/08 10:04:46;;;;;;;2.97;1.60;;;;;;;10.06;74.42;96808.97;5074852;28;20208;-69
2021/11/08 10:07:13;;;;;;;7.47;2.37;;;;;;;10.34;75.09;96802.47;5073003;28;20200;-69
2021/11/08 10:09:41;;;;;;;3.10;1.77;;;;;;;10.37;74.30;96810.88;5075318;28;20211;-69
2021/11/08 10:12:11;;;;;;;2.43;2.17;;;;;;;10.76;73.13;96803.19;5075607;28;20222;-70
2021/11/08 10:14:39;;;;;;;1.17;1.03;;;;;;;10.69;73.12;96808.28;5077111;28;20211;-70
2021/11/08 10:17:06;;;;;;;10.73;2.13;;;;;;;10.86;72.61;96806.47;5076851;28;20204;-70
2021/11/08 10:19:35;;;;;;;2.87;1.90;;;;;;;10.79;72.69;96801.00;5075938;28;20230;-70
2021/11/08 10:22:03;;;;;;;9.13;2.03;;;;;;;11.14;71.68;96801.50;5075813;28;20279;-70
2021/11/08 10:24:33;;;;;;;3.27;1.73;;;;;;;11.03;72.61;96806.28;5075485;28;20204;-70
2021/11/08 10:27:06;;;;;;;6.37;1.77;;;;;;;10.95;72.40;96804.47;5074913;28;20208;-70
2021/11/08 10:29:33;;;;;;;2.13;1.23;;;;;;;10.85;71.90;96800.38;5075763;28;20293;-70
2021/11/08 10:32:02;;;;;;;7.03;1.87;;;;;;;10.82;73.83;96805.97;5078730;28;20204;-70
2021/11/08 10:34:30;;;;;;;17.13;2.03;;;;;;;10.58;74.59;96803.31;5078373;28;20203;-70
2021/11/08 10:37:00;;;;;;;5.70;1.53;;;;;;;10.77;74.12;96803.00;5076288;28;20204;-70
2021/11/08 10:39:27;;;;;;;9.27;2.27;;;;;;;10.57;73.22;96799.03;5077827;28;20223;-70
2021/11/08 10:41:55;;;;;;;1.17;1.03;;;;;;;10.53;72.93;96810.09;5076266;28;20200;-70
2021/11/08 10:44:24;;;;;;;1.50;1.30;;;;;;;10.88;72.66;96801.84;5077283;28;20687;-70
2021/11/08 10:46:58;;;;;;;2.60;1.33;;;;;;;11.24;76.18;96810.06;5075522;28;20207;-70
2021/11/08 10:49:26;;;;;;;5.13;2.40;;;;;;;11.18;75.58;96797.53;5076282;28;20854;-70
2021/11/08 10:51:55;;;;;;;8.63;3.67;;;;;;;11.54;73.14;96795.38;5079268;28;20200;-70
2021/11/08 10:54:24;;;;;;;13.60;3.80;;;;;;;12.24;74.53;96799.53;5077823;28;20223;-70
2021/11/08 10:56:56;;;;;;;8.10;1.50;;;;;;;12.05;71.37;96804.38;5080114;28;20879;-70
2021/11/08 10:59:29;;;;;;;2.83;1.37;;;;;;;12.16;72.44;96802.19;5080308;28;20230;-70
2021/11/08 11:01:57;;;;;;;4.20;2.10;;;;;;;12.00;68.69;96806.72;5081219;28;20673;-70
2021/11/08 11:04:33;;;;;;;10.50;1.43;;;;;;;12.15;68.22;96801.56;5080559;28;20208;-70
2021/11/08 11:07:00;;;;;;;9.33;4.67;;;;;;;12.07;70.60;96801.59;5077452;28;20218;-70
2021/11/08 11:09:28;;;;;;;21.73;2.50;;;;;;;12.23;71.27;96804.97;5080606;28;20598;-70
2021/11/08 11:12:08;;;;;;;12.83;2.03;;;;;;;13.04;71.17;96798.97;5079499;28;20214;-70
2021/11/08 11:14:37;;;;;;;3.43;1.97;;;;;;;12.85;66.70;96802.09;5077134;28;20264;-70
2021/11/08 11:17:10;;;;;;;3.10;1.70;;;;;;;12.68;67.61;96795.28;5075942;28;20619;-70
2021/11/08 11:19:37;;;;;;;8.20;2.20;;;;;;;12.07;68.14;96809.53;5078368;28;20227;-70
2021/11/08 11:22:07;;;;;;;2.30;1.10;;;;;;;12.06;67.39;96807.88;5078877;28;20200;-70
2021/11/08 11:24:45;;;;;;;1.70;0.80;;;;;;;12.07;66.58;96809.53;5076368;28;20208;-70
2021/11/08 11:27:17;;;;;;;2.73;1.30;;;;;;;11.85;67.86;96808.47;5077876;28;20204;-70
2021/11/08 11:29:46;;;;;;;1.90;0.90;;;;;;;11.99;67.67;96804.25;5079045;28;20282;-70
2021/11/08 11:32:23;;;;;;;1.97;1.03;;;;;;;11.95;66.58;96811.72;5079513;28;20290;-70
2021/11/08 11:34:50;;;;;;;5.10;1.40;;;;;;;11.30;66.78;96795.38;5078809;28;20252;-70
2021/11/08 11:37:19;;;;;;;4.60;1.80;;;;;;;11.46;64.42;96801.44;5077983;28;20219;-70
2021/11/08 11:39:45;;;;;;;10.13;1.43;;;;;;;11.37;65.03;96797.19;5079398;28;20266;-70
2021/11/08 11:42:12;;;;;;;0.77;0.50;;;;;;;11.44;64.19;96803.41;5078938;28;20846;-70
2021/11/08 11:44:39;;;;;;;18.33;1.43;;;;;;;11.51;63.91;96800.97;5078812;28;20226;-70
2021/11/08 11:47:17;;;;;;;1.07;0.83;;;;;;;12.01;63.00;96797.00;5078306;28;20208;-70
2021/11/08 11:49:45;;;;;;;5.13;1.20;;;;;;;11.74;65.25;96813.28;5079005;28;20322;-70
2021/11/08 11:52:12;;;;;;;1.43;1.20;;;;;;;11.50;69.25;96802.78;5079106;28;20204;-70
2021/11/08 11:54:39;;;;;;;6.70;1.30;;;;;;;11.95;66.57;96809.09;5078489;28;20231;-71
2021/11/08 11:57:06;;;;;;;4.20;1.00;;;;;;;11.92;66.82;96804.13;5077550;28;20204;-71
2021/11/08 11:59:34;;;;;;;2.43;1.13;;;;;;;11.68;68.87;96800.75;5077390;28;20235;-71
2021/11/08 12:02:01;;;;;;;2.70;1.37;;;;;;;11.80;65.21;96799.38;5076121;28;20287;-71
2021/11/08 12:04:30;;;;;;;1.13;0.80;;;;;;;11.87;62.84;96805.63;5077960;28;20204;-71
2021/11/08 12:07:00;;;;;;;0.83;0.73;;;;;;;11.24;61.87;96791.59;5074123;28;20204;-71
2021/11/08 12:09:30;;;;;;;0.40;0.40;;;;;;;10.97;62.39;96788.50;5076595;28;20228;-67
2021/11/08 12:11:56;;;;;;;0.30;0.30;;;;;;;11.33;63.04;96779.19;5077009;28;20208;-70
2021/11/08 12:14:26;;;;;;;11.37;0.77;;;;;;;11.32;64.18;96778.38;5078240;28;20219;-71
2021/11/08 12:16:57;;;;;;;2.83;0.97;;;;;;;11.38;65.46;96769.81;5078196;28;20203;-70
2021/11/08 12:19:28;;;;;;;5.53;0.83;;;;;;;11.36;65.13;96768.31;5076113;28;20228;-69
2021/11/08 12:21:56;;;;;;;19.27;0.93;;;;;;;10.84;65.62;96766.28;5075246;28;20208;-70
2021/11/08 12:24:27;;;;;;;1.00;0.80;;;;;;;10.54;67.90;96770.38;5072756;28;20894;-70
2021/11/08 12:27:04;;;;;;;0.87;0.70;;;;;;;10.98;68.00;96777.81;5074600;28;20203;-68
2021/11/08 12:29:31;;;;;;;1.47;0.87;;;;;;;10.57;69.54;96775.31;5074241;28;21191;-69
2021/11/08 12:32:03;;;;;;;3.70;2.00;;;;;;;10.66;70.47;96770.88;5075725;28;20204;-69
2021/11/08 12:34:37;;;;;;;8.10;1.00;;;;;;;10.81;68.91;96772.69;5076720;28;20234;-69
2021/11/08 12:37:06;;;;;;;0.90;0.50;;;;;;;10.61;69.77;96767.91;5075873;28;20207;-69
2021/11/08 12:39:32;;;;;;;2.57;0.70;;;;;;;10.47;69.79;96773.84;5076353;28;21069;-69
2021/11/08 12:42:03;;;;;;;6.90;1.27;;;;;;;10.81;67.79;96769.25;5075771;28;20223;-70
2021/11/08 12:44:36;;;;;;;3.27;0.80;;;;;;;10.94;67.23;96762.47;5076075;28;20294;-70
2021/11/08 12:47:03;;;;;;;1.40;0.80;;;;;;;10.59;68.89;96767.25;5075535;28;20204;-70
2021/11/08 12:49:33;;;;;;;0.40;0.40;;;;;;;10.95;69.34;96764.94;5076579;28;20223;-70
2021/11/08 12:52:07;;;;;;;1.30;0.77;;;;;;;11.08;68.66;96759.97;5075167;28;20238;-69
2021/11/08 12:54:47;;;;;;;13.60;0.73;;;;;;;11.08;66.73;96756.50;5077084;28;20275;-70
2021/11/08 12:57:15;;;;;;;0.50;0.50;;;;;;;11.12;66.23;96765.72;5074730;28;20214;-70
2021/11/08 12:59:44;;;;;;;1.00;0.90;;;;;;;11.30;65.44;96763.72;5073928;28;20204;-70
2021/11/08 13:02:23;;;;;;;2.33;0.97;;;;;;;11.51;66.08;96767.50;5076313;28;20226;-69
2021/11/08 13:04:50;;;;;;;1.90;0.67;;;;;;;11.43;63.04;96758.72;5073112;28;20234;-70
2021/11/08 13:07:19;;;;;;;1.07;0.77;;;;;;;11.54;61.19;96761.88;5073710;28;20215;-68
2021/11/08 13:09:49;;;;;;;8.33;2.20;;;;;;;11.75;60.18;96764.78;5074962;28;20207;-70